sensor_id;sensor_type;location;lat;lon;timestamp;temperature;humidity
7736;DHT22;3911;48.830;9.072;2022-09-01T00:00:46;23.10;57.40
7736;DHT22;3911;48.830;9.072;2022-09-01T00:03:12;23.10;57.40
7736;DHT22;3911;48.830;9.072;2022-09-01T00:05:39;23.10;57.40
7736;DHT22;3911;48.830;9.072;2022-09-01T00:08:06;23.00;57.30
7736;DHT22;3911;48.830;9.072;2022-09-01T00:10:33;23.00;57.30
7736;DHT22;3911;48.830;9.072;2022-09-01T00:13:01;23.00;57.30
7736;DHT22;3911;48.830;9.072;2022-09-01T00:15:28;23.00;57.20
7736;DHT22;3911;48.830;9.072;2022-09-01T00:17:55;23.00;57.10
7736;DHT22;3911;48.830;9.072;2022-09-01T00:20:23;23.00;57.10
7736;DHT22;3911;48.830;9.072;2022-09-01T00:22:49;23.00;57.00
7736;DHT22;3911;48.830;9.072;2022-09-01T00:25:16;23.10;57.10
7736;DHT22;3911;48.830;9.072;2022-09-01T00:27:43;23.00;57.00
7736;DHT22;3911;48.830;9.072;2022-09-01T00:30:09;23.00;56.90
7736;DHT22;3911;48.830;9.072;2022-09-01T00:32:37;23.00;56.60
7736;DHT22;3911;48.830;9.072;2022-09-01T00:35:04;23.00;56.40
7736;DHT22;3911;48.830;9.072;2022-09-01T00:37:31;23.00;56.80
7736;DHT22;3911;48.830;9.072;2022-09-01T00:39:58;23.00;56.80
7736;DHT22;3911;48.830;9.072;2022-09-01T00:42:25;23.00;56.80
7736;DHT22;3911;48.830;9.072;2022-09-01T00:44:53;23.00;56.80
7736;DHT22;3911;48.830;9.072;2022-09-01T00:47:20;23.00;56.70
7736;DHT22;3911;48.830;9.072;2022-09-01T00:49:48;23.00;56.60
7736;DHT22;3911;48.830;9.072;2022-09-01T00:52:19;23.00;56.50
7736;DHT22;3911;48.830;9.072;2022-09-01T00:54:44;23.00;56.50
7736;DHT22;3911;48.830;9.072;2022-09-01T00:57:09;23.00;56.50
7736;DHT22;3911;48.830;9.072;2022-09-01T00:59:38;23.00;57.40
7736;DHT22;3911;48.830;9.072;2022-09-01T01:02:04;23.00;56.40
7736;DHT22;3911;48.830;9.072;2022-09-01T01:04:30;23.00;56.40
7736;DHT22;3911;48.830;9.072;2022-09-01T01:06:57;23.00;56.40
7736;DHT22;3911;48.830;9.072;2022-09-01T01:09:24;23.00;57.00
7736;DHT22;3911;48.830;9.072;2022-09-01T01:11:51;23.00;56.20
7736;DHT22;3911;48.830;9.072;2022-09-01T01:14:17;23.00;56.10
7736;DHT22;3911;48.830;9.072;2022-09-01T01:16:45;23.00;56.10
7736;DHT22;3911;48.830;9.072;2022-09-01T01:19:19;23.00;56.10
7736;DHT22;3911;48.830;9.072;2022-09-01T01:21:42;23.00;56.00
7736;DHT22;3911;48.830;9.072;2022-09-01T01:24:30;22.90;55.80
7736;DHT22;3911;48.830;9.072;2022-09-01T01:26:55;22.90;55.90
7736;DHT22;3911;48.830;9.072;2022-09-01T01:29:22;23.00;55.90
7736;DHT22;3911;48.830;9.072;2022-09-01T01:31:50;22.90;55.80
7736;DHT22;3911;48.830;9.072;2022-09-01T01:34:17;22.90;55.80
7736;DHT22;3911;48.830;9.072;2022-09-01T01:36:45;22.90;55.70
7736;DHT22;3911;48.830;9.072;2022-09-01T01:39:14;22.90;55.70
7736;DHT22;3911;48.830;9.072;2022-09-01T01:41:40;22.90;55.60
7736;DHT22;3911;48.830;9.072;2022-09-01T01:44:06;22.90;55.60
7736;DHT22;3911;48.830;9.072;2022-09-01T01:46:33;22.90;55.60
7736;DHT22;3911;48.830;9.072;2022-09-01T01:48:59;22.90;55.60
7736;DHT22;3911;48.830;9.072;2022-09-01T01:51:28;22.90;55.60
7736;DHT22;3911;48.830;9.072;2022-09-01T01:53:55;22.90;55.60
7736;DHT22;3911;48.830;9.072;2022-09-01T01:56:22;22.90;55.50
7736;DHT22;3911;48.830;9.072;2022-09-01T01:58:49;22.90;55.50
7736;DHT22;3911;48.830;9.072;2022-09-01T02:01:15;22.90;55.50
7736;DHT22;3911;48.830;9.072;2022-09-01T02:03:43;22.90;55.50
7736;DHT22;3911;48.830;9.072;2022-09-01T02:06:10;22.90;55.40
7736;DHT22;3911;48.830;9.072;2022-09-01T02:08:37;22.90;55.30
7736;DHT22;3911;48.830;9.072;2022-09-01T02:11:05;22.90;55.30
7736;DHT22;3911;48.830;9.072;2022-09-01T02:13:32;22.90;55.20
7736;DHT22;3911;48.830;9.072;2022-09-01T02:16:00;22.80;55.10
7736;DHT22;3911;48.830;9.072;2022-09-01T02:18:27;22.80;55.10
7736;DHT22;3911;48.830;9.072;2022-09-01T02:20:52;22.80;55.20
7736;DHT22;3911;48.830;9.072;2022-09-01T02:23:19;22.80;55.20
7736;DHT22;3911;48.830;9.072;2022-09-01T02:25:45;22.80;55.10
7736;DHT22;3911;48.830;9.072;2022-09-01T02:28:13;22.80;55.10
7736;DHT22;3911;48.830;9.072;2022-09-01T02:30:43;22.80;55.00
7736;DHT22;3911;48.830;9.072;2022-09-01T02:33:10;22.80;55.00
7736;DHT22;3911;48.830;9.072;2022-09-01T02:35:36;22.80;55.00
7736;DHT22;3911;48.830;9.072;2022-09-01T02:38:03;22.80;55.00
7736;DHT22;3911;48.830;9.072;2022-09-01T02:40:31;22.80;54.90
7736;DHT22;3911;48.830;9.072;2022-09-01T02:42:58;22.80;54.80
7736;DHT22;3911;48.830;9.072;2022-09-01T02:45:26;22.80;54.80
7736;DHT22;3911;48.830;9.072;2022-09-01T02:47:52;22.80;54.70
7736;DHT22;3911;48.830;9.072;2022-09-01T02:50:18;22.80;54.60
7736;DHT22;3911;48.830;9.072;2022-09-01T02:52:45;22.80;54.60
7736;DHT22;3911;48.830;9.072;2022-09-01T02:55:12;22.70;54.40
7736;DHT22;3911;48.830;9.072;2022-09-01T02:57:38;22.70;54.40
7736;DHT22;3911;48.830;9.072;2022-09-01T03:00:06;22.70;54.40
7736;DHT22;3911;48.830;9.072;2022-09-01T03:02:33;22.70;54.40
7736;DHT22;3911;48.830;9.072;2022-09-01T03:05:01;22.70;54.60
7736;DHT22;3911;48.830;9.072;2022-09-01T03:07:28;22.70;54.60
7736;DHT22;3911;48.830;9.072;2022-09-01T03:09:55;22.70;54.50
7736;DHT22;3911;48.830;9.072;2022-09-01T03:12:21;22.70;54.40
7736;DHT22;3911;48.830;9.072;2022-09-01T03:14:48;22.70;54.40
7736;DHT22;3911;48.830;9.072;2022-09-01T03:17:14;22.70;54.30
7736;DHT22;3911;48.830;9.072;2022-09-01T03:19:41;22.70;54.30
7736;DHT22;3911;48.830;9.072;2022-09-01T03:22:07;22.70;54.20
7736;DHT22;3911;48.830;9.072;2022-09-01T03:24:34;22.70;54.50
7736;DHT22;3911;48.830;9.072;2022-09-01T03:27:01;22.70;54.20
7736;DHT22;3911;48.830;9.072;2022-09-01T03:29:29;22.70;54.20
7736;DHT22;3911;48.830;9.072;2022-09-01T03:31:56;22.70;54.20
7736;DHT22;3911;48.830;9.072;2022-09-01T03:34:24;22.70;54.10
7736;DHT22;3911;48.830;9.072;2022-09-01T03:36:50;22.70;54.00
7736;DHT22;3911;48.830;9.072;2022-09-01T03:39:17;22.70;54.00
7736;DHT22;3911;48.830;9.072;2022-09-01T03:41:43;22.60;53.80
7736;DHT22;3911;48.830;9.072;2022-09-01T03:44:13;22.60;53.80
7736;DHT22;3911;48.830;9.072;2022-09-01T03:46:36;22.60;53.70
7736;DHT22;3911;48.830;9.072;2022-09-01T03:49:03;22.60;53.70
7736;DHT22;3911;48.830;9.072;2022-09-01T03:51:30;22.70;53.70
7736;DHT22;3911;48.830;9.072;2022-09-01T03:53:57;22.60;53.60
7736;DHT22;3911;48.830;9.072;2022-09-01T03:56:25;22.60;53.50
7736;DHT22;3911;48.830;9.072;2022-09-01T03:58:53;22.60;53.50
7736;DHT22;3911;48.830;9.072;2022-09-01T04:01:19;22.60;53.40
7736;DHT22;3911;48.830;9.072;2022-09-01T04:03:46;22.60;53.50
7736;DHT22;3911;48.830;9.072;2022-09-01T04:06:12;22.60;53.40
7736;DHT22;3911;48.830;9.072;2022-09-01T04:08:40;22.60;53.30
7736;DHT22;3911;48.830;9.072;2022-09-01T04:11:11;22.60;53.40
7736;DHT22;3911;48.830;9.072;2022-09-01T04:13:37;22.60;53.40
7736;DHT22;3911;48.830;9.072;2022-09-01T04:16:03;22.60;53.40
7736;DHT22;3911;48.830;9.072;2022-09-01T04:18:39;22.60;53.20
7736;DHT22;3911;48.830;9.072;2022-09-01T04:21:06;22.60;53.10
7736;DHT22;3911;48.830;9.072;2022-09-01T04:23:33;22.60;53.20
7736;DHT22;3911;48.830;9.072;2022-09-01T04:26:05;22.60;53.10
7736;DHT22;3911;48.830;9.072;2022-09-01T04:28:36;22.60;53.10
7736;DHT22;3911;48.830;9.072;2022-09-01T04:31:03;22.60;53.10
7736;DHT22;3911;48.830;9.072;2022-09-01T04:33:29;22.50;53.10
7736;DHT22;3911;48.830;9.072;2022-09-01T04:35:56;22.50;53.10
7736;DHT22;3911;48.830;9.072;2022-09-01T04:38:23;22.50;53.10
7736;DHT22;3911;48.830;9.072;2022-09-01T04:40:49;22.50;53.10
7736;DHT22;3911;48.830;9.072;2022-09-01T04:43:16;22.50;53.10
7736;DHT22;3911;48.830;9.072;2022-09-01T04:45:44;22.50;53.00
7736;DHT22;3911;48.830;9.072;2022-09-01T04:48:11;22.50;54.10
7736;DHT22;3911;48.830;9.072;2022-09-01T04:50:39;22.50;53.90
7736;DHT22;3911;48.830;9.072;2022-09-01T04:53:06;22.50;54.30
7736;DHT22;3911;48.830;9.072;2022-09-01T04:55:33;22.20;54.00
7736;DHT22;3911;48.830;9.072;2022-09-01T04:57:59;22.20;54.00
7736;DHT22;3911;48.830;9.072;2022-09-01T05:00:26;22.30;54.40
7736;DHT22;3911;48.830;9.072;2022-09-01T05:02:54;22.20;54.30
7736;DHT22;3911;48.830;9.072;2022-09-01T05:05:20;22.20;54.10
7736;DHT22;3911;48.830;9.072;2022-09-01T05:07:46;22.20;53.90
7736;DHT22;3911;48.830;9.072;2022-09-01T05:10:13;22.10;53.10
7736;DHT22;3911;48.830;9.072;2022-09-01T05:12:41;22.00;53.40
7736;DHT22;3911;48.830;9.072;2022-09-01T05:15:08;22.00;53.50
7736;DHT22;3911;48.830;9.072;2022-09-01T05:17:36;21.90;53.90
7736;DHT22;3911;48.830;9.072;2022-09-01T05:20:03;21.90;54.00
7736;DHT22;3911;48.830;9.072;2022-09-01T05:22:30;21.90;53.30
7736;DHT22;3911;48.830;9.072;2022-09-01T05:24:58;21.80;53.30
7736;DHT22;3911;48.830;9.072;2022-09-01T05:27:24;21.80;53.40
7736;DHT22;3911;48.830;9.072;2022-09-01T05:29:52;21.80;53.60
7736;DHT22;3911;48.830;9.072;2022-09-01T05:32:19;22.00;54.20
7736;DHT22;3911;48.830;9.072;2022-09-01T05:34:46;22.10;54.20
7736;DHT22;3911;48.830;9.072;2022-09-01T05:37:13;22.10;54.10
7736;DHT22;3911;48.830;9.072;2022-09-01T05:39:40;22.20;54.00
7736;DHT22;3911;48.830;9.072;2022-09-01T05:42:06;22.30;53.90
7736;DHT22;3911;48.830;9.072;2022-09-01T05:44:33;22.40;54.00
7736;DHT22;3911;48.830;9.072;2022-09-01T05:46:59;22.30;53.90
7736;DHT22;3911;48.830;9.072;2022-09-01T05:49:27;22.40;54.60
7736;DHT22;3911;48.830;9.072;2022-09-01T05:51:54;22.40;54.70
7736;DHT22;3911;48.830;9.072;2022-09-01T05:54:23;22.40;54.40
7736;DHT22;3911;48.830;9.072;2022-09-01T05:56:49;22.40;54.40
7736;DHT22;3911;48.830;9.072;2022-09-01T05:59:17;22.40;54.60
7736;DHT22;3911;48.830;9.072;2022-09-01T06:01:43;22.40;54.50
7736;DHT22;3911;48.830;9.072;2022-09-01T06:04:11;22.40;54.70
7736;DHT22;3911;48.830;9.072;2022-09-01T06:06:42;22.50;54.80
7736;DHT22;3911;48.830;9.072;2022-09-01T06:09:07;22.40;54.60
7736;DHT22;3911;48.830;9.072;2022-09-01T06:11:33;22.40;54.70
7736;DHT22;3911;48.830;9.072;2022-09-01T06:14:00;22.40;54.70
7736;DHT22;3911;48.830;9.072;2022-09-01T06:16:26;22.50;54.80
7736;DHT22;3911;48.830;9.072;2022-09-01T06:18:54;22.50;54.80
7736;DHT22;3911;48.830;9.072;2022-09-01T06:21:21;22.50;54.80
7736;DHT22;3911;48.830;9.072;2022-09-01T06:23:49;22.50;54.80
7736;DHT22;3911;48.830;9.072;2022-09-01T06:26:17;22.50;54.80
7736;DHT22;3911;48.830;9.072;2022-09-01T06:28:44;22.50;54.90
7736;DHT22;3911;48.830;9.072;2022-09-01T06:31:10;22.60;55.00
7736;DHT22;3911;48.830;9.072;2022-09-01T06:33:37;22.50;54.90
7736;DHT22;3911;48.830;9.072;2022-09-01T06:36:04;22.60;55.10
7736;DHT22;3911;48.830;9.072;2022-09-01T06:38:31;22.60;55.30
7736;DHT22;3911;48.830;9.072;2022-09-01T06:40:59;22.60;55.30
7736;DHT22;3911;48.830;9.072;2022-09-01T06:43:25;22.30;55.50
7736;DHT22;3911;48.830;9.072;2022-09-01T06:45:51;22.20;56.00
7736;DHT22;3911;48.830;9.072;2022-09-01T06:48:20;22.10;56.30
7736;DHT22;3911;48.830;9.072;2022-09-01T06:50:46;22.10;57.10
7736;DHT22;3911;48.830;9.072;2022-09-01T06:53:14;22.00;56.40
7736;DHT22;3911;48.830;9.072;2022-09-01T06:55:41;22.00;56.60
7736;DHT22;3911;48.830;9.072;2022-09-01T06:58:09;22.10;56.70
7736;DHT22;3911;48.830;9.072;2022-09-01T07:00:36;22.10;56.70
7736;DHT22;3911;48.830;9.072;2022-09-01T07:03:08;22.10;56.70
7736;DHT22;3911;48.830;9.072;2022-09-01T07:05:38;22.10;56.70
7736;DHT22;3911;48.830;9.072;2022-09-01T07:08:04;22.10;56.70
7736;DHT22;3911;48.830;9.072;2022-09-01T07:10:30;22.10;57.40
7736;DHT22;3911;48.830;9.072;2022-09-01T07:12:58;22.10;56.80
7736;DHT22;3911;48.830;9.072;2022-09-01T07:15:25;22.20;56.60
7736;DHT22;3911;48.830;9.072;2022-09-01T07:17:54;22.20;56.50
7736;DHT22;3911;48.830;9.072;2022-09-01T07:20:19;22.40;56.50
7736;DHT22;3911;48.830;9.072;2022-09-01T07:22:46;22.50;56.20
7736;DHT22;3911;48.830;9.072;2022-09-01T07:25:12;22.50;56.30
7736;DHT22;3911;48.830;9.072;2022-09-01T07:27:39;22.50;56.20
7736;DHT22;3911;48.830;9.072;2022-09-01T07:30:06;22.50;56.20
7736;DHT22;3911;48.830;9.072;2022-09-01T07:32:35;22.50;56.80
7736;DHT22;3911;48.830;9.072;2022-09-01T07:35:03;22.50;56.90
7736;DHT22;3911;48.830;9.072;2022-09-01T07:37:29;22.50;56.20
7736;DHT22;3911;48.830;9.072;2022-09-01T07:39:57;22.60;56.30
7736;DHT22;3911;48.830;9.072;2022-09-01T07:42:24;22.60;56.30
7736;DHT22;3911;48.830;9.072;2022-09-01T07:44:51;22.70;56.20
7736;DHT22;3911;48.830;9.072;2022-09-01T07:47:19;22.70;56.20
7736;DHT22;3911;48.830;9.072;2022-09-01T07:49:45;22.70;56.20
7736;DHT22;3911;48.830;9.072;2022-09-01T07:52:12;22.60;56.10
7736;DHT22;3911;48.830;9.072;2022-09-01T07:54:38;22.60;56.10
7736;DHT22;3911;48.830;9.072;2022-09-01T07:57:05;22.70;56.20
7736;DHT22;3911;48.830;9.072;2022-09-01T07:59:32;22.70;56.20
7736;DHT22;3911;48.830;9.072;2022-09-01T08:01:59;22.80;56.80
7736;DHT22;3911;48.830;9.072;2022-09-01T08:04:26;22.80;56.30
7736;DHT22;3911;48.830;9.072;2022-09-01T08:06:54;22.80;56.20
7736;DHT22;3911;48.830;9.072;2022-09-01T08:09:21;22.80;56.20
7736;DHT22;3911;48.830;9.072;2022-09-01T08:11:48;22.80;56.10
7736;DHT22;3911;48.830;9.072;2022-09-01T08:14:16;22.80;56.00
7736;DHT22;3911;48.830;9.072;2022-09-01T08:16:43;22.80;56.00
7736;DHT22;3911;48.830;9.072;2022-09-01T08:19:10;22.80;56.00
7736;DHT22;3911;48.830;9.072;2022-09-01T08:21:37;22.80;56.00
7736;DHT22;3911;48.830;9.072;2022-09-01T08:24:04;22.80;55.90
7736;DHT22;3911;48.830;9.072;2022-09-01T08:26:32;22.80;56.00
7736;DHT22;3911;48.830;9.072;2022-09-01T08:28:59;22.80;56.00
7736;DHT22;3911;48.830;9.072;2022-09-01T08:31:26;22.80;55.90
7736;DHT22;3911;48.830;9.072;2022-09-01T08:33:54;22.80;55.90
7736;DHT22;3911;48.830;9.072;2022-09-01T08:36:20;22.80;55.90
7736;DHT22;3911;48.830;9.072;2022-09-01T08:38:47;22.80;56.00
7736;DHT22;3911;48.830;9.072;2022-09-01T08:41:31;22.90;55.80
7736;DHT22;3911;48.830;9.072;2022-09-01T08:44:06;22.80;55.80
7736;DHT22;3911;48.830;9.072;2022-09-01T08:46:32;22.80;55.80
7736;DHT22;3911;48.830;9.072;2022-09-01T08:48:58;22.80;55.80
7736;DHT22;3911;48.830;9.072;2022-09-01T08:51:29;22.80;55.80
7736;DHT22;3911;48.830;9.072;2022-09-01T08:54:17;22.80;55.70
7736;DHT22;3911;48.830;9.072;2022-09-01T08:56:40;22.90;55.70
7736;DHT22;3911;48.830;9.072;2022-09-01T08:59:08;22.90;55.70
7736;DHT22;3911;48.830;9.072;2022-09-01T09:01:53;22.80;55.60
7736;DHT22;3911;48.830;9.072;2022-09-01T09:04:52;22.90;55.70
7736;DHT22;3911;48.830;9.072;2022-09-01T09:07:05;22.90;55.60
7736;DHT22;3911;48.830;9.072;2022-09-01T09:09:32;22.90;55.60
7736;DHT22;3911;48.830;9.072;2022-09-01T09:12:07;23.00;55.90
7736;DHT22;3911;48.830;9.072;2022-09-01T09:14:42;23.10;56.60
7736;DHT22;3911;48.830;9.072;2022-09-01T09:17:03;23.00;55.80
7736;DHT22;3911;48.830;9.072;2022-09-01T09:19:30;23.10;56.50
7736;DHT22;3911;48.830;9.072;2022-09-01T09:21:58;23.00;55.80
7736;DHT22;3911;48.830;9.072;2022-09-01T09:27:17;23.00;55.80
7736;DHT22;3911;48.830;9.072;2022-09-01T09:29:51;23.00;55.90
7736;DHT22;3911;48.830;9.072;2022-09-01T09:32:18;23.00;55.80
7736;DHT22;3911;48.830;9.072;2022-09-01T09:34:46;23.00;56.20
7736;DHT22;3911;48.830;9.072;2022-09-01T09:37:27;23.00;56.50
7736;DHT22;3911;48.830;9.072;2022-09-01T09:40:21;23.00;55.80
7736;DHT22;3911;48.830;9.072;2022-09-01T09:43:01;23.00;55.90
7736;DHT22;3911;48.830;9.072;2022-09-01T09:45:34;23.00;55.80
7736;DHT22;3911;48.830;9.072;2022-09-01T09:48:02;23.10;56.20
7736;DHT22;3911;48.830;9.072;2022-09-01T09:50:28;23.10;56.70
7736;DHT22;3911;48.830;9.072;2022-09-01T09:53:35;23.10;56.70
7736;DHT22;3911;48.830;9.072;2022-09-01T09:55:53;23.20;56.60
7736;DHT22;3911;48.830;9.072;2022-09-01T09:58:18;23.20;56.90
7736;DHT22;3911;48.830;9.072;2022-09-01T10:00:56;23.10;56.80
7736;DHT22;3911;48.830;9.072;2022-09-01T10:03:11;23.10;56.50
7736;DHT22;3911;48.830;9.072;2022-09-01T10:05:40;23.20;56.40
7736;DHT22;3911;48.830;9.072;2022-09-01T10:08:07;23.20;56.40
7736;DHT22;3911;48.830;9.072;2022-09-01T10:10:43;23.20;56.20
7736;DHT22;3911;48.830;9.072;2022-09-01T10:13:14;23.20;56.30
7736;DHT22;3911;48.830;9.072;2022-09-01T10:15:42;23.20;56.30
7736;DHT22;3911;48.830;9.072;2022-09-01T10:18:09;23.30;56.20
7736;DHT22;3911;48.830;9.072;2022-09-01T10:20:36;23.30;56.00
7736;DHT22;3911;48.830;9.072;2022-09-01T10:23:02;23.30;56.00
7736;DHT22;3911;48.830;9.072;2022-09-01T10:25:30;23.30;56.00
7736;DHT22;3911;48.830;9.072;2022-09-01T10:27:59;23.30;56.00
7736;DHT22;3911;48.830;9.072;2022-09-01T10:30:23;23.30;56.00
7736;DHT22;3911;48.830;9.072;2022-09-01T10:32:53;23.30;55.90
7736;DHT22;3911;48.830;9.072;2022-09-01T10:35:29;23.30;56.50
7736;DHT22;3911;48.830;9.072;2022-09-01T10:37:55;23.30;56.10
7736;DHT22;3911;48.830;9.072;2022-09-01T10:40:39;23.30;56.10
7736;DHT22;3911;48.830;9.072;2022-09-01T10:45:43;23.30;56.20
7736;DHT22;3911;48.830;9.072;2022-09-01T10:48:26;23.30;56.10
7736;DHT22;3911;48.830;9.072;2022-09-01T10:50:53;23.30;56.10
7736;DHT22;3911;48.830;9.072;2022-09-01T10:58:43;23.40;56.00
7736;DHT22;3911;48.830;9.072;2022-09-01T11:01:08;23.40;56.10
7736;DHT22;3911;48.830;9.072;2022-09-01T11:03:35;23.40;56.10
7736;DHT22;3911;48.830;9.072;2022-09-01T11:06:04;23.40;56.20
7736;DHT22;3911;48.830;9.072;2022-09-01T11:08:45;23.50;56.30
7736;DHT22;3911;48.830;9.072;2022-09-01T11:14:24;23.60;56.80
7736;DHT22;3911;48.830;9.072;2022-09-01T11:22:33;23.60;56.10
7736;DHT22;3911;48.830;9.072;2022-09-01T11:25:07;23.60;56.20
7736;DHT22;3911;48.830;9.072;2022-09-01T11:30:14;23.60;56.20
7736;DHT22;3911;48.830;9.072;2022-09-01T11:32:38;23.60;56.20
7736;DHT22;3911;48.830;9.072;2022-09-01T11:35:06;23.60;56.40
7736;DHT22;3911;48.830;9.072;2022-09-01T11:37:32;23.60;56.90
7736;DHT22;3911;48.830;9.072;2022-09-01T11:40:00;23.60;57.40
7736;DHT22;3911;48.830;9.072;2022-09-01T11:42:30;23.60;56.60
7736;DHT22;3911;48.830;9.072;2022-09-01T11:45:02;23.60;56.60
7736;DHT22;3911;48.830;9.072;2022-09-01T11:47:36;23.60;56.40
7736;DHT22;3911;48.830;9.072;2022-09-01T11:50:04;23.70;56.40
7736;DHT22;3911;48.830;9.072;2022-09-01T11:52:31;23.70;56.30
7736;DHT22;3911;48.830;9.072;2022-09-01T11:54:58;23.70;56.30
7736;DHT22;3911;48.830;9.072;2022-09-01T11:57:28;23.70;56.40
7736;DHT22;3911;48.830;9.072;2022-09-01T11:59:55;23.70;56.50
7736;DHT22;3911;48.830;9.072;2022-09-01T12:02:26;23.70;56.50
7736;DHT22;3911;48.830;9.072;2022-09-01T12:04:53;23.70;56.50
7736;DHT22;3911;48.830;9.072;2022-09-01T12:07:28;23.70;56.30
7736;DHT22;3911;48.830;9.072;2022-09-01T12:09:52;23.80;57.00
7736;DHT22;3911;48.830;9.072;2022-09-01T12:12:30;23.80;56.10
7736;DHT22;3911;48.830;9.072;2022-09-01T12:14:58;24.00;56.10
7736;DHT22;3911;48.830;9.072;2022-09-01T12:17:23;24.00;55.70
7736;DHT22;3911;48.830;9.072;2022-09-01T12:19:50;24.10;55.70
7736;DHT22;3911;48.830;9.072;2022-09-01T12:22:17;24.20;55.60
7736;DHT22;3911;48.830;9.072;2022-09-01T12:24:44;24.20;55.40
7736;DHT22;3911;48.830;9.072;2022-09-01T12:27:10;24.20;55.00
7736;DHT22;3911;48.830;9.072;2022-09-01T12:29:37;24.20;55.10
7736;DHT22;3911;48.830;9.072;2022-09-01T12:32:05;24.30;55.10
7736;DHT22;3911;48.830;9.072;2022-09-01T12:34:37;24.30;55.00
7736;DHT22;3911;48.830;9.072;2022-09-01T12:37:22;24.30;55.00
7736;DHT22;3911;48.830;9.072;2022-09-01T12:39:51;24.30;54.90
7736;DHT22;3911;48.830;9.072;2022-09-01T12:42:28;24.50;54.70
7736;DHT22;3911;48.830;9.072;2022-09-01T12:44:56;24.50;54.60
7736;DHT22;3911;48.830;9.072;2022-09-01T12:50:33;24.70;54.40
7736;DHT22;3911;48.830;9.072;2022-09-01T12:53:00;24.90;53.90
7736;DHT22;3911;48.830;9.072;2022-09-01T12:55:30;24.80;53.80
7736;DHT22;3911;48.830;9.072;2022-09-01T12:57:57;25.00;53.70
7736;DHT22;3911;48.830;9.072;2022-09-01T13:00:24;25.10;53.40
7736;DHT22;3911;48.830;9.072;2022-09-01T13:02:50;25.20;53.20
7736;DHT22;3911;48.830;9.072;2022-09-01T13:05:43;25.40;53.20
7736;DHT22;3911;48.830;9.072;2022-09-01T13:08:10;25.40;52.70
7736;DHT22;3911;48.830;9.072;2022-09-01T13:10:38;25.60;52.50
7736;DHT22;3911;48.830;9.072;2022-09-01T13:13:04;25.60;52.30
7736;DHT22;3911;48.830;9.072;2022-09-01T13:15:30;25.80;52.10
7736;DHT22;3911;48.830;9.072;2022-09-01T13:17:57;25.80;51.90
7736;DHT22;3911;48.830;9.072;2022-09-01T13:20:23;25.80;51.80
7736;DHT22;3911;48.830;9.072;2022-09-01T13:22:51;26.10;51.50
7736;DHT22;3911;48.830;9.072;2022-09-01T13:25:18;26.20;51.20
7736;DHT22;3911;48.830;9.072;2022-09-01T13:27:45;26.30;51.10
7736;DHT22;3911;48.830;9.072;2022-09-01T13:30:14;26.30;51.00
7736;DHT22;3911;48.830;9.072;2022-09-01T13:32:42;26.30;51.60
7736;DHT22;3911;48.830;9.072;2022-09-01T13:35:09;26.30;51.60
7736;DHT22;3911;48.830;9.072;2022-09-01T13:37:35;26.30;52.10
7736;DHT22;3911;48.830;9.072;2022-09-01T13:40:02;26.30;51.80
7736;DHT22;3911;48.830;9.072;2022-09-01T13:42:29;25.60;49.90
7736;DHT22;3911;48.830;9.072;2022-09-01T13:44:56;25.40;49.80
7736;DHT22;3911;48.830;9.072;2022-09-01T13:47:24;25.20;49.30
7736;DHT22;3911;48.830;9.072;2022-09-01T13:49:51;25.10;49.10
7736;DHT22;3911;48.830;9.072;2022-09-01T13:52:18;24.80;48.90
7736;DHT22;3911;48.830;9.072;2022-09-01T13:54:46;24.60;49.20
7736;DHT22;3911;48.830;9.072;2022-09-01T13:57:12;24.60;49.10
7736;DHT22;3911;48.830;9.072;2022-09-01T13:59:39;24.50;49.40
7736;DHT22;3911;48.830;9.072;2022-09-01T14:02:06;24.50;49.20
7736;DHT22;3911;48.830;9.072;2022-09-01T14:04:32;24.80;49.20
7736;DHT22;3911;48.830;9.072;2022-09-01T14:06:59;24.90;48.70
7736;DHT22;3911;48.830;9.072;2022-09-01T14:09:25;25.10;48.30
7736;DHT22;3911;48.830;9.072;2022-09-01T14:11:52;25.00;48.20
7736;DHT22;3911;48.830;9.072;2022-09-01T14:14:19;25.30;47.40
7736;DHT22;3911;48.830;9.072;2022-09-01T14:16:46;25.30;47.00
7736;DHT22;3911;48.830;9.072;2022-09-01T14:19:14;25.30;47.20
7736;DHT22;3911;48.830;9.072;2022-09-01T14:21:41;25.30;47.20
7736;DHT22;3911;48.830;9.072;2022-09-01T14:24:07;25.40;46.90
7736;DHT22;3911;48.830;9.072;2022-09-01T14:26:34;25.40;46.70
7736;DHT22;3911;48.830;9.072;2022-09-01T14:29:00;25.40;46.70
7736;DHT22;3911;48.830;9.072;2022-09-01T14:31:27;25.40;46.50
7736;DHT22;3911;48.830;9.072;2022-09-01T14:33:54;25.40;46.70
7736;DHT22;3911;48.830;9.072;2022-09-01T14:36:21;25.50;46.20
7736;DHT22;3911;48.830;9.072;2022-09-01T14:38:47;25.50;46.40
7736;DHT22;3911;48.830;9.072;2022-09-01T14:41:16;25.50;46.50
7736;DHT22;3911;48.830;9.072;2022-09-01T14:43:42;25.50;46.50
7736;DHT22;3911;48.830;9.072;2022-09-01T14:46:09;25.50;46.40
7736;DHT22;3911;48.830;9.072;2022-09-01T14:48:37;25.50;46.60
7736;DHT22;3911;48.830;9.072;2022-09-01T14:51:03;25.50;46.60
7736;DHT22;3911;48.830;9.072;2022-09-01T14:53:30;25.50;46.50
7736;DHT22;3911;48.830;9.072;2022-09-01T14:55:57;25.50;46.50
7736;DHT22;3911;48.830;9.072;2022-09-01T14:58:23;25.50;46.60
7736;DHT22;3911;48.830;9.072;2022-09-01T15:00:51;25.40;46.80
7736;DHT22;3911;48.830;9.072;2022-09-01T15:03:18;25.40;46.80
7736;DHT22;3911;48.830;9.072;2022-09-01T15:05:45;25.30;46.80
7736;DHT22;3911;48.830;9.072;2022-09-01T15:08:12;25.30;47.40
7736;DHT22;3911;48.830;9.072;2022-09-01T15:10:40;25.10;47.00
7736;DHT22;3911;48.830;9.072;2022-09-01T15:13:07;25.10;47.10
7736;DHT22;3911;48.830;9.072;2022-09-01T15:15:34;25.10;47.10
7736;DHT22;3911;48.830;9.072;2022-09-01T15:18:00;25.10;46.60
7736;DHT22;3911;48.830;9.072;2022-09-01T15:20:27;25.10;46.60
7736;DHT22;3911;48.830;9.072;2022-09-01T15:22:59;25.10;46.60
7736;DHT22;3911;48.830;9.072;2022-09-01T15:25:27;25.00;46.60
7736;DHT22;3911;48.830;9.072;2022-09-01T15:27:53;25.00;46.60
7736;DHT22;3911;48.830;9.072;2022-09-01T15:30:20;25.00;46.80
7736;DHT22;3911;48.830;9.072;2022-09-01T15:32:48;25.10;46.80
7736;DHT22;3911;48.830;9.072;2022-09-01T15:35:13;25.00;46.60
7736;DHT22;3911;48.830;9.072;2022-09-01T15:37:40;24.90;46.80
7736;DHT22;3911;48.830;9.072;2022-09-01T15:40:08;24.90;46.90
7736;DHT22;3911;48.830;9.072;2022-09-01T15:42:35;24.80;46.20
7736;DHT22;3911;48.830;9.072;2022-09-01T15:45:05;24.80;46.20
7736;DHT22;3911;48.830;9.072;2022-09-01T15:47:33;24.60;46.40
7736;DHT22;3911;48.830;9.072;2022-09-01T15:50:03;24.60;46.60
7736;DHT22;3911;48.830;9.072;2022-09-01T15:52:29;24.50;46.50
7736;DHT22;3911;48.830;9.072;2022-09-01T15:54:56;24.60;46.80
7736;DHT22;3911;48.830;9.072;2022-09-01T15:57:23;24.60;46.80
7736;DHT22;3911;48.830;9.072;2022-09-01T15:59:50;24.60;46.70
7736;DHT22;3911;48.830;9.072;2022-09-01T16:02:17;24.60;46.90
7736;DHT22;3911;48.830;9.072;2022-09-01T16:04:45;24.70;47.80
7736;DHT22;3911;48.830;9.072;2022-09-01T16:07:12;24.70;48.30
7736;DHT22;3911;48.830;9.072;2022-09-01T16:09:39;24.70;48.30
7736;DHT22;3911;48.830;9.072;2022-09-01T16:12:05;24.80;48.70
7736;DHT22;3911;48.830;9.072;2022-09-01T16:14:33;24.80;49.90
7736;DHT22;3911;48.830;9.072;2022-09-01T16:17:03;24.80;49.90
7736;DHT22;3911;48.830;9.072;2022-09-01T16:19:49;24.80;50.50
7736;DHT22;3911;48.830;9.072;2022-09-01T16:22:20;24.80;51.00
7736;DHT22;3911;48.830;9.072;2022-09-01T16:24:45;24.80;50.80
7736;DHT22;3911;48.830;9.072;2022-09-01T16:27:13;24.70;51.00
7736;DHT22;3911;48.830;9.072;2022-09-01T16:29:41;24.70;51.30
7736;DHT22;3911;48.830;9.072;2022-09-01T16:32:05;24.70;51.40